Time;durP1;ratioP1;P1;durP2;ratioP2;P2;SDS_P1;SDS_P2;PMS_P1;PMS_P2;Temp;Humidity;BMP_temperature;BMP_pressure;BME280_temperature;BME280_humidity;BME280_pressure;Samples;Min_cycle;Max_cycle;Signal;HPM_P1;HPM_P2
2023/01/10 00:00:30;;;;;;;24.17;7.40;;;5.30;99.90;;;;;;5110814;28;20267;-70
2023/01/10 00:02:57;;;;;;;18.07;5.87;;;5.30;99.90;;;;;;5108407;28;20210;-70
2023/01/10 00:05:24;;;;;;;23.70;6.00;;;5.30;99.90;;;;;;5090677;28;20195;-70
2023/01/10 00:07:51;;;;;;;23.80;6.70;;;5.30;99.90;;;;;;5109596;28;20288;-71
2023/01/10 00:10:18;;;;;;;19.23;6.33;;;5.40;99.90;;;;;;5110335;28;20213;-70
2023/01/10 00:15:35;;;;;;;21.27;6.77;;;5.50;99.90;;;;;;5087708;28;20213;-70
2023/01/10 00:18:02;;;;;;;23.03;6.03;;;5.60;99.90;;;;;;5097161;28;20289;-70
2023/01/10 00:20:29;;;;;;;26.10;6.40;;;5.60;99.90;;;;;;5099213;28;20276;-70
2023/01/10 00:22:56;;;;;;;26.97;7.50;;;5.70;99.90;;;;;;5069241;28;20288;-71
2023/01/10 00:25:23;;;;;;;22.83;6.43;;;5.80;99.90;;;;;;5070313;28;20196;-70
2023/01/10 00:28:00;;;;;;;21.03;6.30;;;5.80;99.90;;;;;;5090442;28;20195;-71
2023/01/10 00:30:27;;;;;;;19.60;5.77;;;5.90;99.90;;;;;;5090626;28;20755;-71
2023/01/10 00:32:55;;;;;;;21.33;5.13;;;5.90;99.90;;;;;;5087617;28;20302;-70
2023/01/10 00:35:22;;;;;;;17.97;5.60;;;5.90;99.90;;;;;;5092392;28;20193;-70
2023/01/10 00:37:49;;;;;;;24.30;6.60;;;5.90;99.90;;;;;;5110342;28;20241;-71
2023/01/10 00:40:16;;;;;;;15.63;5.23;;;6.00;99.90;;;;;;5108585;28;20484;-71
2023/01/10 00:45:27;;;;;;;15.37;5.30;;;6.00;99.90;;;;;;5088358;28;20295;-71
2023/01/10 00:47:54;;;;;;;19.30;4.90;;;6.00;99.90;;;;;;5106086;28;20539;-70
2023/01/10 00:50:21;;;;;;;19.37;5.17;;;6.10;99.90;;;;;;5080158;28;20205;-70
2023/01/10 00:52:48;;;;;;;19.57;4.80;;;6.10;99.90;;;;;;5104434;28;20210;-70
2023/01/10 00:55:14;;;;;;;16.53;4.80;;;6.10;99.90;;;;;;5092247;28;20213;-72
2023/01/10 00:57:41;;;;;;;21.93;4.93;;;6.20;99.90;;;;;;5106299;28;20254;-70
2023/01/10 01:00:09;;;;;;;15.60;4.77;;;6.10;99.90;;;;;;5107445;28;20230;-70
2023/01/10 01:02:35;;;;;;;15.33;4.73;;;6.20;99.90;;;;;;5102587;28;20312;-71
2023/01/10 01:05:06;;;;;;;14.13;4.30;;;6.20;99.90;;;;;;5097650;28;20239;-71
2023/01/10 01:07:33;;;;;;;35.20;7.30;;;6.20;99.90;;;;;;5091327;28;20212;-71
2023/01/10 01:12:45;;;;;;;10.97;4.17;;;6.10;99.90;;;;;;5105153;28;20203;-70
2023/01/10 01:15:11;;;;;;;20.10;5.07;;;6.10;99.90;;;;;;5101715;28;20198;-71
2023/01/10 01:17:38;;;;;;;11.50;4.70;;;6.10;99.90;;;;;;5103462;28;20228;-71
2023/01/10 01:20:06;;;;;;;20.50;4.30;;;6.00;99.90;;;;;;5107348;28;20203;-71
2023/01/10 01:22:32;;;;;;;16.80;4.07;;;6.00;99.90;;;;;;5103025;28;20209;-71
2023/01/10 01:25:00;;;;;;;21.03;5.13;;;5.90;99.90;;;;;;5106203;28;20206;-70
2023/01/10 01:27:26;;;;;;;21.50;4.90;;;5.90;99.90;;;;;;5103377;28;20203;-71
2023/01/10 01:29:53;;;;;;;8.37;3.40;;;5.90;99.90;;;;;;5109456;28;20691;-71
2023/01/10 01:32:20;;;;;;;15.40;4.30;;;5.90;99.90;;;;;;5106840;28;20220;-70
2023/01/10 01:34:47;;;;;;;19.83;5.77;;;5.90;99.90;;;;;;5096282;28;20241;-70
2023/01/10 01:37:15;;;;;;;14.70;4.17;;;5.90;99.90;;;;;;5095492;28;20325;-71
2023/01/10 01:39:43;;;;;;;14.33;3.90;;;5.90;99.90;;;;;;5107679;28;20191;-71
2023/01/10 01:42:31;;;;;;;16.50;4.53;;;6.00;99.90;;;;;;5105239;28;20230;-71
2023/01/10 01:45:21;;;;;;;15.83;4.63;;;5.90;99.90;;;;;;5108670;28;20203;-70
2023/01/10 01:47:57;;;;;;;16.47;3.77;;;6.00;99.90;;;;;;5096831;28;20266;-70
2023/01/10 01:50:31;;;;;;;37.20;4.33;;;6.00;99.90;;;;;;5107532;28;20231;-71
2023/01/10 01:53:00;;;;;;;16.43;4.10;;;6.10;99.90;;;;;;5112347;28;20285;-70
2023/01/10 01:55:30;;;;;;;17.77;4.20;;;6.10;99.90;;;;;;5112171;28;20208;-70
2023/01/10 01:57:59;;;;;;;21.13;4.10;;;6.10;99.90;;;;;;5096680;28;20230;-69
2023/01/10 02:00:26;;;;;;;25.63;4.00;;;6.10;99.90;;;;;;5113105;28;20209;-70
2023/01/10 02:02:56;;;;;;;16.23;4.47;;;6.20;99.90;;;;;;5105215;28;20747;-69
2023/01/10 02:05:30;;;;;;;16.57;4.03;;;6.20;99.90;;;;;;5104939;28;20202;-70
2023/01/10 02:08:00;;;;;;;18.30;4.23;;;6.20;99.90;;;;;;5112594;28;20227;-70
2023/01/10 02:10:39;;;;;;;14.27;3.50;;;6.30;99.90;;;;;;5091778;28;20201;-70
2023/01/10 02:13:10;;;;;;;19.10;4.70;;;6.30;99.90;;;;;;5109322;28;20205;-70
2023/01/10 02:15:37;;;;;;;20.17;4.00;;;6.30;99.90;;;;;;5098293;28;20196;-70
2023/01/10 02:18:04;;;;;;;15.37;4.07;;;6.30;99.90;;;;;;5100967;28;20248;-70
2023/01/10 02:20:46;;;;;;;15.70;3.77;;;6.40;99.90;;;;;;5103489;28;20662;-70
2023/01/10 02:23:21;;;;;;;16.67;4.53;;;6.40;99.90;;;;;;5098105;28;20200;-70
2023/01/10 02:26:18;;;;;;;18.27;4.10;;;6.30;99.90;;;;;;5099163;28;20229;-70
2023/01/10 02:29:13;;;;;;;17.27;4.03;;;6.40;99.90;;;;;;5110157;28;20238;-69
2023/01/10 02:32:17;;;;;;;19.57;4.67;;;6.40;99.90;;;;;;5109959;28;20257;-71
2023/01/10 02:35:25;;;;;;;12.83;3.77;;;6.40;99.90;;;;;;5109500;28;20666;-70
2023/01/10 02:38:15;;;;;;;14.97;4.70;;;6.40;99.90;;;;;;5106218;28;20244;-70
2023/01/10 02:40:54;;;;;;;23.30;4.40;;;6.40;99.90;;;;;;5102162;28;20210;-70
2023/01/10 02:43:25;;;;;;;15.00;3.77;;;6.40;99.90;;;;;;5096885;28;20694;-70
2023/01/10 02:46:04;;;;;;;15.43;5.10;;;6.40;99.90;;;;;;5090882;28;20645;-70
2023/01/10 02:48:30;;;;;;;12.47;4.33;;;6.40;99.90;;;;;;5111539;28;20194;-71
2023/01/10 02:51:21;;;;;;;20.77;3.97;;;6.40;99.90;;;;;;5104615;28;20568;-71
2023/01/10 02:53:55;;;;;;;17.13;3.80;;;6.40;99.90;;;;;;5103064;28;20276;-70
2023/01/10 02:56:33;;;;;;;13.87;3.67;;;6.40;99.90;;;;;;5093263;28;20615;-71
2023/01/10 02:59:30;;;;;;;16.43;3.73;;;6.40;99.90;;;;;;5100583;28;20295;-70
2023/01/10 03:02:21;;;;;;;17.77;3.87;;;6.40;99.90;;;;;;5093385;28;20249;-70
2023/01/10 03:05:27;;;;;;;16.57;3.23;;;6.30;99.90;;;;;;5088346;28;20191;-70
2023/01/10 03:08:06;;;;;;;16.70;4.40;;;6.30;99.90;;;;;;5075819;28;20661;-70
2023/01/10 03:10:56;;;;;;;21.33;3.50;;;6.30;99.90;;;;;;5111724;28;20557;-70
2023/01/10 03:13:32;;;;;;;19.90;3.47;;;6.30;99.90;;;;;;5110914;28;20639;-70
2023/01/10 03:16:01;;;;;;;21.03;4.07;;;6.30;99.90;;;;;;5080673;28;20276;-71
2023/01/10 03:18:44;;;;;;;19.00;3.60;;;6.30;99.90;;;;;;5096495;28;20277;-71
2023/01/10 03:21:12;;;;;;;16.30;3.43;;;6.30;99.90;;;;;;5098230;28;20228;-70
2023/01/10 03:23:39;;;;;;;20.37;4.47;;;6.30;99.90;;;;;;5105030;28;20320;-70
2023/01/10 03:26:08;;;;;;;17.40;3.83;;;6.40;99.90;;;;;;5103645;28;20205;-70
2023/01/10 03:28:54;;;;;;;15.50;3.47;;;6.40;99.90;;;;;;5091691;28;20286;-70
2023/01/10 03:31:28;;;;;;;16.30;3.50;;;6.40;99.90;;;;;;5111619;28;20556;-71
2023/01/10 03:33:55;;;;;;;24.97;3.97;;;6.30;99.90;;;;;;5092288;28;20223;-70
2023/01/10 03:36:42;;;;;;;27.37;4.17;;;6.40;99.90;;;;;;5091839;28;20205;-71
2023/01/10 03:39:21;;;;;;;19.43;4.20;;;6.40;99.90;;;;;;5108023;28;20229;-72
2023/01/10 03:41:58;;;;;;;17.77;3.93;;;6.40;99.90;;;;;;5096934;28;20283;-70
2023/01/10 03:44:42;;;;;;;22.90;4.87;;;6.40;99.90;;;;;;5101540;28;20199;-70
2023/01/10 03:47:26;;;;;;;24.00;4.10;;;6.50;99.90;;;;;;5109205;28;20220;-70
2023/01/10 03:49:58;;;;;;;23.33;4.17;;;6.50;99.90;;;;;;5088484;28;20205;-70
2023/01/10 03:52:25;;;;;;;28.80;4.07;;;6.50;99.90;;;;;;5100722;28;20227;-70
2023/01/10 03:54:52;;;;;;;19.63;3.30;;;6.60;99.90;;;;;;5092280;28;20291;-70
2023/01/10 03:57:22;;;;;;;19.67;3.47;;;6.60;99.90;;;;;;5106418;28;20229;-70
2023/01/10 03:59:54;;;;;;;17.53;3.50;;;6.60;99.90;;;;;;5108844;28;20191;-70
2023/01/10 04:02:20;;;;;;;21.03;4.53;;;6.50;99.90;;;;;;5105542;28;20299;-70
2023/01/10 04:04:47;;;;;;;19.10;4.07;;;6.60;99.90;;;;;;5103852;28;20702;-70
2023/01/10 04:07:14;;;;;;;20.47;4.43;;;6.60;99.90;;;;;;5091917;28;20222;-71
2023/01/10 04:09:40;;;;;;;19.33;3.60;;;6.60;99.90;;;;;;5100058;28;20795;-71
2023/01/10 04:12:07;;;;;;;19.00;3.80;;;6.60;99.90;;;;;;5099645;28;20308;-70
2023/01/10 04:14:34;;;;;;;25.13;3.67;;;6.60;99.90;;;;;;5099182;28;20203;-70
2023/01/10 04:17:01;;;;;;;17.90;3.83;;;6.60;99.90;;;;;;5098632;28;20667;-70
2023/01/10 04:19:27;;;;;;;20.10;4.77;;;6.70;99.90;;;;;;5068057;28;20658;-70
2023/01/10 04:21:54;;;;;;;17.40;4.40;;;6.60;99.90;;;;;;5105786;28;20667;-71
2023/01/10 04:24:21;;;;;;;18.23;4.00;;;6.60;99.90;;;;;;5077350;28;20201;-71
2023/01/10 04:26:47;;;;;;;24.10;4.07;;;6.60;99.90;;;;;;5092917;28;20784;-71
2023/01/10 04:29:14;;;;;;;20.17;4.03;;;6.70;99.90;;;;;;5108539;28;20200;-70
2023/01/10 04:31:41;;;;;;;18.73;3.63;;;6.60;99.90;;;;;;5096265;28;20217;-70
2023/01/10 04:34:08;;;;;;;17.47;3.23;;;6.60;99.90;;;;;;5055765;28;20204;-71
2023/01/10 04:36:35;;;;;;;21.50;4.43;;;6.70;99.90;;;;;;5107511;28;20324;-71
2023/01/10 04:39:03;;;;;;;18.93;4.20;;;6.70;99.90;;;;;;5098724;28;20236;-71
2023/01/10 04:41:30;;;;;;;16.70;4.03;;;6.70;99.90;;;;;;5097856;28;20662;-71
2023/01/10 04:43:56;;;;;;;26.93;4.00;;;6.70;99.90;;;;;;5097929;28;20294;-71
2023/01/10 04:46:23;;;;;;;21.83;5.27;;;6.70;99.90;;;;;;5094512;28;20561;-70
2023/01/10 04:48:50;;;;;;;23.03;4.03;;;6.70;99.90;;;;;;5083280;28;20238;-70
2023/01/10 04:51:17;;;;;;;19.27;4.23;;;6.70;99.90;;;;;;5078656;28;20211;-70
2023/01/10 04:53:44;;;;;;;19.40;3.70;;;6.70;99.90;;;;;;5085943;28;20345;-70
2023/01/10 04:56:17;;;;;;;25.37;4.63;;;6.70;99.90;;;;;;5107024;28;20609;-71
2023/01/10 04:58:44;;;;;;;16.57;4.27;;;6.60;99.90;;;;;;5089934;28;20274;-70
2023/01/10 05:01:16;;;;;;;18.53;3.77;;;6.60;99.90;;;;;;5106263;28;20652;-70
2023/01/10 05:03:43;;;;;;;23.73;4.10;;;6.60;99.90;;;;;;5107925;28;20665;-71
2023/01/10 05:06:09;;;;;;;19.97;4.00;;;6.70;99.90;;;;;;5108432;28;20225;-71
2023/01/10 05:08:36;;;;;;;19.97;4.60;;;6.60;99.90;;;;;;5092989;28;20705;-73
2023/01/10 05:11:03;;;;;;;20.83;4.80;;;6.60;99.90;;;;;;5096037;28;20521;-71
2023/01/10 05:13:30;;;;;;;23.93;4.63;;;6.60;99.90;;;;;;5101457;28;20205;-70
2023/01/10 05:15:57;;;;;;;22.87;4.83;;;6.60;99.90;;;;;;5088313;28;20199;-71
2023/01/10 05:18:25;;;;;;;28.10;5.23;;;6.60;99.90;;;;;;5106808;28;20236;-71
2023/01/10 05:20:52;;;;;;;26.67;5.00;;;6.70;99.90;;;;;;5108111;28;20210;-71
2023/01/10 05:23:19;;;;;;;22.43;4.90;;;6.70;99.90;;;;;;5105061;28;20212;-72
2023/01/10 05:25:45;;;;;;;17.20;4.07;;;6.70;99.90;;;;;;5095382;28;20193;-70
2023/01/10 05:28:12;;;;;;;26.07;5.63;;;6.70;99.90;;;;;;5077906;28;20196;-71
2023/01/10 05:30:39;;;;;;;22.80;4.93;;;6.70;99.90;;;;;;5093493;28;20216;-70
2023/01/10 05:33:05;;;;;;;19.70;4.87;;;6.70;99.90;;;;;;5090771;28;20299;-71
2023/01/10 05:35:33;;;;;;;22.63;5.23;;;6.70;99.90;;;;;;5106591;28;20564;-71
2023/01/10 05:38:00;;;;;;;21.53;4.40;;;6.70;99.90;;;;;;5101034;28;20583;-71
2023/01/10 05:40:26;;;;;;;16.30;4.97;;;6.60;99.90;;;;;;5110154;28;20207;-71
2023/01/10 05:42:53;;;;;;;27.83;6.53;;;6.70;99.90;;;;;;5094622;28;20277;-71
2023/01/10 05:45:20;;;;;;;19.53;5.57;;;6.60;99.90;;;;;;5094978;28;20195;-71
2023/01/10 05:47:47;;;;;;;25.23;5.50;;;6.60;99.90;;;;;;5112348;28;20220;-70
2023/01/10 05:50:14;;;;;;;21.47;4.60;;;6.60;99.90;;;;;;5094224;28;20215;-71
2023/01/10 05:52:41;;;;;;;17.10;5.00;;;6.60;99.90;;;;;;5093424;28;20197;-71
2023/01/10 05:55:07;;;;;;;21.80;5.20;;;6.60;99.90;;;;;;5084767;28;20198;-71
2023/01/10 05:57:34;;;;;;;30.43;5.90;;;6.50;99.90;;;;;;5103068;28;20685;-70
2023/01/10 06:00:02;;;;;;;23.93;5.50;;;6.60;99.90;;;;;;5097613;28;20200;-71
2023/01/10 06:02:31;;;;;;;32.63;5.57;;;6.50;99.90;;;;;;5107724;28;20304;-70
2023/01/10 06:04:58;;;;;;;20.17;5.03;;;6.50;99.90;;;;;;5092073;28;20646;-70
2023/01/10 06:07:25;;;;;;;20.03;5.20;;;6.50;99.90;;;;;;5111793;28;20284;-70
2023/01/10 06:09:51;;;;;;;24.37;5.10;;;6.50;99.90;;;;;;5096959;28;20205;-70
2023/01/10 06:12:18;;;;;;;24.00;4.90;;;6.50;99.90;;;;;;5103238;28;20258;-70
2023/01/10 06:14:45;;;;;;;22.10;5.03;;;6.40;99.90;;;;;;5114828;27;20205;-70
2023/01/10 06:17:11;;;;;;;26.77;5.40;;;6.40;99.90;;;;;;5110172;28;20216;-72
2023/01/10 06:19:38;;;;;;;31.10;5.27;;;6.40;99.90;;;;;;5104351;28;20223;-71
2023/01/10 06:22:05;;;;;;;24.77;5.77;;;6.40;99.90;;;;;;5097973;28;20675;-70
2023/01/10 06:24:32;;;;;;;24.67;4.90;;;6.40;99.90;;;;;;5095696;28;20642;-71
2023/01/10 06:26:58;;;;;;;39.37;6.27;;;6.40;99.90;;;;;;5107692;28;20191;-70
2023/01/10 06:29:25;;;;;;;23.40;5.07;;;6.50;99.90;;;;;;5088527;28;20424;-71
2023/01/10 06:31:52;;;;;;;29.10;5.53;;;6.50;99.90;;;;;;5111278;28;20223;-70
2023/01/10 06:34:18;;;;;;;27.60;5.37;;;6.60;99.90;;;;;;5110829;28;20216;-71
2023/01/10 06:36:45;;;;;;;29.13;5.00;;;6.60;99.90;;;;;;5109161;28;20204;-71
2023/01/10 06:39:12;;;;;;;28.10;5.30;;;6.60;99.90;;;;;;5104059;28;20265;-71
2023/01/10 06:41:38;;;;;;;28.43;5.30;;;6.60;99.90;;;;;;5090925;28;20204;-71
2023/01/10 06:44:05;;;;;;;19.70;5.20;;;6.60;99.90;;;;;;5106912;28;20284;-72
2023/01/10 06:46:32;;;;;;;26.10;5.97;;;6.70;99.90;;;;;;5106465;28;20253;-71
2023/01/10 06:48:58;;;;;;;22.97;4.67;;;6.70;99.90;;;;;;5091111;28;20248;-71
2023/01/10 06:51:25;;;;;;;16.03;4.70;;;6.70;99.90;;;;;;5109056;28;20287;-71
2023/01/10 06:53:52;;;;;;;29.37;6.67;;;6.80;99.90;;;;;;5109140;28;20693;-71
2023/01/10 06:56:19;;;;;;;22.23;5.60;;;6.80;99.90;;;;;;5084028;28;20229;-72
2023/01/10 06:58:48;;;;;;;23.80;5.33;;;6.80;99.90;;;;;;5089808;28;20224;-71
2023/01/10 07:01:19;;;;;;;34.53;5.73;;;6.80;99.90;;;;;;5111488;28;20676;-71
2023/01/10 07:03:47;;;;;;;24.53;5.13;;;6.80;99.90;;;;;;5095690;28;20648;-71
2023/01/10 07:06:14;;;;;;;27.77;5.03;;;6.80;99.90;;;;;;5090716;28;20201;-71
2023/01/10 07:08:43;;;;;;;21.70;5.73;;;6.80;99.90;;;;;;5074781;28;20814;-70
2023/01/10 07:11:12;;;;;;;28.00;7.10;;;6.80;99.90;;;;;;5106242;28;20296;-70
2023/01/10 07:13:39;;;;;;;29.90;5.47;;;6.80;99.90;;;;;;5096835;28;20671;-70
2023/01/10 07:16:09;;;;;;;26.93;6.03;;;6.80;99.90;;;;;;5094728;28;20639;-70
2023/01/10 07:18:37;;;;;;;25.33;5.40;;;6.80;99.90;;;;;;5095890;28;20328;-71
2023/01/10 07:21:05;;;;;;;32.30;5.80;;;6.90;99.90;;;;;;5101152;28;20299;-71
2023/01/10 07:23:32;;;;;;;31.33;6.17;;;6.90;99.90;;;;;;5096398;28;20549;-71
2023/01/10 07:26:08;;;;;;;28.23;5.90;;;6.90;99.90;;;;;;5110827;28;20289;-70
2023/01/10 07:28:35;;;;;;;23.77;5.57;;;6.90;99.90;;;;;;5093693;28;20251;-70
2023/01/10 07:31:09;;;;;;;30.80;6.60;;;6.90;99.90;;;;;;5110570;28;20240;-72
2023/01/10 07:33:36;;;;;;;28.37;6.17;;;6.90;99.90;;;;;;5106795;28;20565;-70
2023/01/10 07:36:03;;;;;;;25.67;7.10;;;6.90;99.90;;;;;;5097155;28;20583;-70
2023/01/10 07:38:29;;;;;;;25.90;6.60;;;6.80;99.90;;;;;;5093697;28;20213;-70
2023/01/10 07:41:02;;;;;;;31.60;7.80;;;6.80;99.90;;;;;;5108706;28;20211;-71
2023/01/10 07:43:29;;;;;;;37.10;8.30;;;6.80;99.90;;;;;;5094388;28;20208;-70
2023/01/10 07:46:00;;;;;;;32.20;9.87;;;6.80;99.90;;;;;;5090081;28;20197;-70
2023/01/10 07:48:27;;;;;;;27.13;8.73;;;6.80;99.90;;;;;;5095302;28;20195;-70
2023/01/10 07:50:56;;;;;;;27.10;8.50;;;6.80;99.90;;;;;;5091543;28;20250;-72
2023/01/10 07:53:24;;;;;;;25.13;8.03;;;6.80;99.90;;;;;;5079950;28;20203;-72
2023/01/10 07:55:50;;;;;;;32.43;8.50;;;6.80;99.90;;;;;;5097196;28;20236;-70
2023/01/10 07:58:19;;;;;;;38.17;8.97;;;6.80;99.90;;;;;;5094118;28;20233;-72
2023/01/10 08:00:48;;;;;;;34.10;8.53;;;6.80;99.90;;;;;;5104767;28;20213;-72
2023/01/10 08:03:17;;;;;;;28.60;7.70;;;6.70;99.90;;;;;;5081087;28;20306;-70
2023/01/10 08:05:44;;;;;;;35.87;8.97;;;6.80;99.90;;;;;;5102669;28;20226;-70
2023/01/10 08:08:11;;;;;;;33.67;8.20;;;6.80;99.90;;;;;;5108070;28;20317;-71
2023/01/10 08:10:41;;;;;;;34.37;8.60;;;6.80;99.90;;;;;;5090818;28;20214;-70
2023/01/10 08:13:11;;;;;;;35.77;9.67;;;6.80;99.90;;;;;;5099136;28;20225;-71
2023/01/10 08:15:45;;;;;;;32.43;9.07;;;6.80;99.90;;;;;;5108158;28;20202;-71
2023/01/10 08:18:13;;;;;;;25.60;7.97;;;6.80;99.90;;;;;;5101448;28;20598;-70
2023/01/10 08:20:40;;;;;;;32.80;8.17;;;6.80;99.90;;;;;;5096588;28;20202;-70
2023/01/10 08:23:09;;;;;;;36.80;9.17;;;6.80;99.90;;;;;;5090959;28;20641;-71
2023/01/10 08:25:36;;;;;;;35.33;9.57;;;6.80;99.90;;;;;;5087030;28;20219;-70
2023/01/10 08:28:05;;;;;;;34.37;10.43;;;6.80;99.90;;;;;;5107311;28;20237;-70
2023/01/10 08:30:32;;;;;;;26.90;8.30;;;6.70;99.90;;;;;;5083562;28;20202;-71
2023/01/10 08:33:02;;;;;;;29.00;9.03;;;6.70;99.90;;;;;;5101717;28;20300;-71
2023/01/10 08:35:36;;;;;;;34.40;8.50;;;6.70;99.90;;;;;;5101451;28;20203;-70
2023/01/10 08:38:02;;;;;;;32.83;8.97;;;6.70;99.90;;;;;;5107880;28;20720;-70
2023/01/10 08:40:29;;;;;;;36.93;9.50;;;6.80;99.90;;;;;;5089935;28;20207;-70
2023/01/10 08:43:01;;;;;;;30.57;7.60;;;6.80;99.90;;;;;;5088355;28;20538;-70
2023/01/10 08:45:28;;;;;;;26.50;7.90;;;6.80;99.90;;;;;;5098865;28;20210;-72
2023/01/10 08:47:54;;;;;;;36.57;8.40;;;6.70;99.90;;;;;;5098052;28;20655;-70
2023/01/10 08:50:21;;;;;;;33.63;8.63;;;6.70;99.90;;;;;;5107556;28;20210;-71
2023/01/10 08:52:49;;;;;;;37.17;9.37;;;6.80;99.90;;;;;;5108687;28;20270;-71
2023/01/10 08:55:17;;;;;;;28.67;9.13;;;6.80;99.90;;;;;;5092905;28;20213;-71
2023/01/10 08:57:44;;;;;;;32.13;9.63;;;6.90;99.90;;;;;;5107377;28;20204;-71
2023/01/10 09:00:12;;;;;;;42.67;8.73;;;6.90;99.90;;;;;;5105438;28;20233;-71
2023/01/10 09:02:39;;;;;;;28.77;9.57;;;6.90;99.90;;;;;;5098357;28;20211;-70
2023/01/10 09:05:06;;;;;;;25.27;8.83;;;7.00;99.90;;;;;;5095693;28;20211;-71
2023/01/10 09:07:47;;;;;;;28.93;8.80;;;7.10;99.90;;;;;;5109271;28;20650;-71
2023/01/10 09:10:14;;;;;;;32.57;8.03;;;7.10;99.90;;;;;;5091633;28;20218;-71
2023/01/10 09:12:56;;;;;;;28.10;8.10;;;7.10;99.90;;;;;;5089774;28;20214;-71
2023/01/10 09:15:31;;;;;;;19.70;6.23;;;7.10;99.90;;;;;;5088071;28;20213;-70
2023/01/10 09:18:02;;;;;;;28.43;7.23;;;7.10;99.90;;;;;;5104888;28;20345;-71
2023/01/10 09:20:29;;;;;;;25.87;6.83;;;7.10;99.90;;;;;;5105396;28;20231;-71
2023/01/10 09:22:57;;;;;;;22.47;6.07;;;7.10;99.90;;;;;;5110290;28;20199;-71
2023/01/10 09:25:24;;;;;;;24.57;5.70;;;7.10;99.90;;;;;;5107892;28;20203;-71
2023/01/10 09:28:07;;;;;;;27.33;6.60;;;7.10;99.90;;;;;;5092462;28;20196;-70
2023/01/10 09:30:34;;;;;;;25.73;6.03;;;7.20;99.90;;;;;;5101562;28;20592;-70
2023/01/10 09:33:02;;;;;;;17.97;5.10;;;7.20;99.90;;;;;;5089583;28;20335;-70
2023/01/10 09:35:30;;;;;;;26.67;5.67;;;7.20;99.90;;;;;;5088590;28;20230;-70
2023/01/10 09:38:00;;;;;;;20.03;5.77;;;7.20;99.90;;;;;;5104466;28;20206;-71
2023/01/10 09:40:48;;;;;;;19.77;6.37;;;7.20;99.90;;;;;;5095944;28;20309;-71
2023/01/10 09:43:40;;;;;;;22.63;5.77;;;7.10;99.90;;;;;;5107207;28;20348;-70
2023/01/10 09:46:38;;;;;;;22.47;5.37;;;7.10;99.90;;;;;;5091446;28;20229;-70
2023/01/10 09:49:24;;;;;;;36.67;5.73;;;7.10;99.90;;;;;;5079602;28;20561;-70
2023/01/10 09:51:55;;;;;;;24.63;6.60;;;7.10;99.90;;;;;;5105451;28;20195;-70
2023/01/10 09:54:28;;;;;;;23.83;5.33;;;7.10;99.90;;;;;;5106452;28;20203;-70
2023/01/10 09:56:58;;;;;;;18.73;4.83;;;7.20;99.90;;;;;;5105710;28;20199;-70
2023/01/10 09:59:30;;;;;;;21.87;5.90;;;7.20;99.90;;;;;;5107171;28;20302;-71
2023/01/10 10:02:05;;;;;;;21.57;5.43;;;7.30;99.90;;;;;;5107549;28;20221;-69
2023/01/10 10:04:35;;;;;;;36.00;5.73;;;7.30;99.90;;;;;;5108938;28;20290;-71
2023/01/10 10:07:07;;;;;;;24.30;5.53;;;7.30;99.90;;;;;;5088862;28;20201;-71
2023/01/10 10:09:34;;;;;;;28.23;5.73;;;7.40;99.90;;;;;;5096058;28;20254;-71
2023/01/10 10:12:28;;;;;;;21.73;4.70;;;7.40;99.90;;;;;;5104270;28;20603;-70
2023/01/10 10:15:20;;;;;;;23.20;5.33;;;7.40;99.90;;;;;;5101390;27;20285;-71
2023/01/10 10:18:28;;;;;;;19.97;5.60;;;7.40;99.90;;;;;;5090786;28;20254;-70
2023/01/10 10:21:30;;;;;;;23.97;5.10;;;7.50;99.90;;;;;;5024416;28;20776;-70
2023/01/10 10:24:05;;;;;;;20.87;5.10;;;7.50;99.90;;;;;;5074917;28;20282;-70
2023/01/10 10:26:36;;;;;;;23.50;5.50;;;7.50;99.90;;;;;;5093708;28;20199;-70
2023/01/10 10:29:24;;;;;;;19.37;5.27;;;7.50;99.90;;;;;;5104152;28;20225;-69
2023/01/10 10:32:29;;;;;;;18.60;6.00;;;7.50;99.90;;;;;;5102770;27;20291;-69
2023/01/10 10:35:06;;;;;;;20.50;5.37;;;7.50;99.90;;;;;;5110397;28;20225;-71
2023/01/10 10:37:44;;;;;;;23.13;6.00;;;7.50;99.90;;;;;;5107366;28;20199;-70
2023/01/10 10:40:13;;;;;;;24.40;6.30;;;7.40;99.90;;;;;;5099370;28;20660;-70
2023/01/10 10:42:46;;;;;;;21.97;5.03;;;7.40;99.90;;;;;;5105467;28;20271;-70
2023/01/10 10:45:39;;;;;;;25.30;6.60;;;7.30;99.90;;;;;;5111609;28;20198;-72
2023/01/10 10:48:16;;;;;;;20.40;6.00;;;7.40;99.90;;;;;;5105257;28;20665;-71
2023/01/10 10:51:06;;;;;;;23.37;5.23;;;7.40;99.90;;;;;;5103610;28;20189;-70
2023/01/10 10:53:34;;;;;;;27.27;5.37;;;7.40;99.90;;;;;;5094431;28;20200;-70
2023/01/10 10:56:03;;;;;;;21.60;5.50;;;7.40;99.90;;;;;;5102430;28;20208;-71
2023/01/10 10:58:33;;;;;;;24.10;5.23;;;7.40;99.90;;;;;;5108940;28;20290;-71
2023/01/10 11:01:00;;;;;;;19.03;5.10;;;7.40;99.90;;;;;;5090220;28;20235;-70
2023/01/10 11:03:47;;;;;;;21.97;6.23;;;7.40;99.90;;;;;;5104583;28;20195;-71
2023/01/10 11:06:18;;;;;;;28.07;5.57;;;7.40;99.90;;;;;;5085385;28;20675;-71
2023/01/10 11:08:49;;;;;;;23.20;5.43;;;7.40;99.90;;;;;;5100020;28;20243;-69
2023/01/10 11:11:38;;;;;;;27.57;5.37;;;7.40;99.90;;;;;;5095273;28;20222;-71
2023/01/10 11:14:07;;;;;;;20.90;5.37;;;7.40;99.90;;;;;;5077135;28;20554;-70
2023/01/10 11:16:37;;;;;;;28.37;5.50;;;7.30;99.90;;;;;;5096017;28;20216;-71
2023/01/10 11:19:15;;;;;;;15.00;5.10;;;7.40;99.90;;;;;;5093967;28;20231;-71
2023/01/10 11:22:06;;;;;;;21.50;4.57;;;7.40;99.90;;;;;;5079866;28;20200;-69
2023/01/10 11:24:36;;;;;;;22.83;5.20;;;7.40;99.90;;;;;;5093955;28;20554;-71
2023/01/10 11:27:14;;;;;;;21.13;5.03;;;7.40;99.90;;;;;;5079238;28;20207;-71
2023/01/10 11:29:51;;;;;;;29.30;6.20;;;7.30;99.90;;;;;;5103141;28;20702;-71
2023/01/10 11:32:21;;;;;;;21.47;5.10;;;7.30;99.90;;;;;;5088663;28;20246;-70
2023/01/10 11:34:58;;;;;;;18.40;4.93;;;7.40;99.90;;;;;;5104275;27;20222;-71
2023/01/10 11:37:33;;;;;;;26.87;5.30;;;7.40;99.90;;;;;;5106282;28;20200;-70
2023/01/10 11:40:17;;;;;;;26.50;5.17;;;7.40;99.90;;;;;;5095537;28;20216;-70
2023/01/10 11:42:44;;;;;;;21.40;5.17;;;7.40;99.90;;;;;;5103298;28;20567;-70
2023/01/10 11:45:17;;;;;;;23.83;5.37;;;7.30;99.90;;;;;;5077252;28;20664;-69
2023/01/10 11:48:04;;;;;;;22.17;5.13;;;7.40;99.90;;;;;;5078446;28;20744;-69
2023/01/10 11:50:34;;;;;;;19.30;5.00;;;7.40;99.90;;;;;;5069727;28;20290;-69
2023/01/10 11:53:01;;;;;;;25.50;4.73;;;7.40;99.90;;;;;;5102116;28;20203;-70
2023/01/10 11:55:35;;;;;;;29.33;5.43;;;7.40;99.90;;;;;;5101315;28;20196;-70
2023/01/10 11:58:07;;;;;;;24.57;5.73;;;7.40;99.90;;;;;;5106282;28;20591;-69
2023/01/10 12:00:36;;;;;;;16.77;4.57;;;7.40;99.90;;;;;;5086822;28;20280;-70
2023/01/10 12:03:35;;;;;;;27.77;4.63;;;7.40;99.90;;;;;;5098748;28;20306;-70
2023/01/10 12:06:07;;;;;;;24.83;5.20;;;7.50;99.90;;;;;;5102852;28;20661;-70
2023/01/10 12:08:36;;;;;;;28.00;6.07;;;7.50;99.90;;;;;;5103229;28;20204;-70
2023/01/10 12:11:28;;;;;;;20.13;4.43;;;7.50;99.90;;;;;;5102781;28;20306;-70
2023/01/10 12:13:58;;;;;;;25.13;4.50;;;7.50;99.90;;;;;;5100605;28;20206;-69
2023/01/10 12:16:28;;;;;;;18.57;4.17;;;7.60;99.90;;;;;;5083587;28;20580;-70
2023/01/10 12:19:01;;;;;;;19.13;4.13;;;7.60;99.90;;;;;;5100275;28;20625;-69
2023/01/10 12:21:42;;;;;;;25.97;6.10;;;7.60;99.90;;;;;;5091885;28;20735;-70
2023/01/10 12:24:29;;;;;;;20.43;4.97;;;7.60;99.90;;;;;;5091683;28;20204;-70
2023/01/10 12:26:56;;;;;;;17.97;3.97;;;7.60;99.90;;;;;;5093524;28;20791;-69
2023/01/10 12:29:28;;;;;;;23.97;5.63;;;7.60;99.90;;;;;;5097718;28;20228;-70
2023/01/10 12:31:57;;;;;;;24.80;4.83;;;7.60;99.90;;;;;;5101147;28;20298;-71
2023/01/10 12:34:40;;;;;;;27.60;4.40;;;7.60;99.90;;;;;;5106690;28;20287;-70
2023/01/10 12:37:25;;;;;;;20.30;4.03;;;7.60;99.90;;;;;;5093016;28;20234;-70
2023/01/10 12:40:01;;;;;;;21.30;4.67;;;7.60;99.90;;;;;;5099113;28;20227;-70
2023/01/10 12:45:52;;;;;;;22.60;3.57;;;7.60;99.90;;;;;;5093793;28;20191;-70
2023/01/10 12:48:32;;;;;;;15.40;4.57;;;7.60;99.90;;;;;;5100774;28;20209;-70
2023/01/10 12:51:04;;;;;;;22.20;4.73;;;7.60;99.90;;;;;;5095221;28;20203;-70
2023/01/10 12:53:40;;;;;;;17.87;4.90;;;7.70;99.90;;;;;;5097212;28;20223;-69
2023/01/10 12:56:12;;;;;;;13.57;3.70;;;7.70;99.90;;;;;;5069741;28;20214;-70
2023/01/10 12:58:46;;;;;;;26.60;4.73;;;7.70;99.90;;;;;;5090655;28;20192;-71
2023/01/10 13:01:16;;;;;;;17.47;4.00;;;7.70;99.90;;;;;;5106343;28;20218;-69
2023/01/10 13:03:49;;;;;;;19.80;3.93;;;7.70;99.90;;;;;;5101698;28;20655;-71
2023/01/10 13:06:29;;;;;;;19.60;4.90;;;7.70;99.90;;;;;;5081576;28;20254;-69
2023/01/10 13:08:58;;;;;;;22.23;4.90;;;7.70;99.90;;;;;;5099209;28;20717;-70
2023/01/10 13:11:29;;;;;;;16.97;3.97;;;7.70;99.90;;;;;;5089133;28;20196;-68
2023/01/10 13:14:01;;;;;;;27.53;5.73;;;7.70;99.90;;;;;;5106060;28;20234;-69
2023/01/10 13:16:51;;;;;;;19.67;4.67;;;7.70;99.90;;;;;;5087156;28;20269;-71
2023/01/10 13:19:20;;;;;;;19.57;4.43;;;7.70;99.90;;;;;;5107296;28;20659;-71
2023/01/10 13:21:47;;;;;;;23.30;4.37;;;7.70;99.90;;;;;;5100966;28;20636;-71
2023/01/10 13:24:13;;;;;;;18.47;4.57;;;7.70;99.90;;;;;;5101868;28;20195;-70